Time;durP1;ratioP1;P1;durP2;ratioP2;P2;SDS_P1;SDS_P2;PMS_P1;PMS_P2;Temp;Humidity;BMP_temperature;BMP_pressure;BME280_temperature;BME280_humidity;BME280_pressure;Samples;Min_cycle;Max_cycle;Signal;HPM_P1;HPM_P2
2022/09/17 00:01:14;;;;;;;3.05;0.55;;;;;;;;;;5020017;28;20053;-50
2022/09/17 00:03:44;;;;;;;0.70;0.40;;;;;;;;;;5032464;28;20042;-51
2022/09/17 00:06:14;;;;;;;0.85;0.40;;;;;;;;;;5032225;28;20056;-50
2022/09/17 00:08:41;;;;;;;2.17;0.50;;;;;;;;;;5028888;28;20133;-50
2022/09/17 00:11:10;;;;;;;2.28;0.63;;;;;;;;;;5024304;28;20060;-49
2022/09/17 00:13:39;;;;;;;2.33;0.60;;;;;;;;;;5032435;28;20072;-49
2022/09/17 00:16:06;;;;;;;1.52;0.47;;;;;;;;;;5032563;28;20080;-50
2022/09/17 00:18:40;;;;;;;4.15;0.60;;;;;;;;;;5024163;28;20061;-49
2022/09/17 00:21:06;;;;;;;4.55;0.70;;;;;;;;;;5033720;28;20054;-49
2022/09/17 00:23:34;;;;;;;3.53;0.80;;;;;;;;;;5029832;28;20045;-49
2022/09/17 00:26:04;;;;;;;1.23;0.57;;;;;;;;;;5023084;28;20065;-52
2022/09/17 00:28:31;;;;;;;2.20;0.50;;;;;;;;;;5028985;28;20057;-51
2022/09/17 00:30:58;;;;;;;1.63;0.47;;;;;;;;;;5030685;28;20060;-51
2022/09/17 00:33:28;;;;;;;2.92;0.50;;;;;;;;;;5018307;28;20069;-49
2022/09/17 00:36:00;;;;;;;2.47;0.50;;;;;;;;;;5026128;28;20046;-49
2022/09/17 00:38:30;;;;;;;2.67;0.82;;;;;;;;;;5026042;28;20049;-49
2022/09/17 00:41:01;;;;;;;3.03;0.80;;;;;;;;;;5028168;28;20050;-52
2022/09/17 00:43:37;;;;;;;3.88;0.60;;;;;;;;;;5025587;28;20049;-50
2022/09/17 00:46:05;;;;;;;1.08;0.70;;;;;;;;;;5032175;28;20462;-49
2022/09/17 00:48:35;;;;;;;2.15;0.47;;;;;;;;;;5032220;28;20661;-50
2022/09/17 00:51:06;;;;;;;2.92;0.50;;;;;;;;;;5030112;28;20129;-49
2022/09/17 00:53:35;;;;;;;2.20;0.70;;;;;;;;;;5039363;28;20506;-50
2022/09/17 00:56:04;;;;;;;1.63;0.40;;;;;;;;;;5014775;28;20044;-49
2022/09/17 00:58:33;;;;;;;1.48;0.50;;;;;;;;;;5013372;28;20658;-50
2022/09/17 01:01:02;;;;;;;1.45;0.60;;;;;;;;;;5031979;28;20049;-49
2022/09/17 01:03:29;;;;;;;1.75;0.60;;;;;;;;;;5016410;28;20049;-49
2022/09/17 01:06:01;;;;;;;1.00;0.60;;;;;;;;;;5028995;28;20045;-49
2022/09/17 01:08:34;;;;;;;1.88;0.55;;;;;;;;;;5020114;28;20053;-49
2022/09/17 01:11:13;;;;;;;1.67;0.60;;;;;;;;;;5035334;28;20063;-49
2022/09/17 01:13:50;;;;;;;2.45;0.60;;;;;;;;;;5027237;28;20060;-49
2022/09/17 01:16:22;;;;;;;1.98;0.55;;;;;;;;;;5029138;28;20060;-49
2022/09/17 01:18:56;;;;;;;3.17;0.65;;;;;;;;;;5024485;28;20049;-49
2022/09/17 01:21:39;;;;;;;0.70;0.43;;;;;;;;;;5036325;28;20052;-51
2022/09/17 01:24:19;;;;;;;1.52;0.50;;;;;;;;;;5032281;28;20085;-49
2022/09/17 01:27:12;;;;;;;4.20;0.60;;;;;;;;;;5017834;28;20042;-49
2022/09/17 01:29:51;;;;;;;1.92;0.60;;;;;;;;;;5026781;28;20049;-49
2022/09/17 01:32:20;;;;;;;3.50;0.55;;;;;;;;;;5022638;28;20520;-49
2022/09/17 01:34:56;;;;;;;1.13;0.60;;;;;;;;;;5022201;28;20100;-50
2022/09/17 01:37:27;;;;;;;2.72;0.70;;;;;;;;;;5022716;28;20041;-49
2022/09/17 01:39:59;;;;;;;3.15;0.70;;;;;;;;;;5036669;28;20056;-51
2022/09/17 01:42:30;;;;;;;1.13;0.50;;;;;;;;;;5022230;28;20049;-50
2022/09/17 01:45:00;;;;;;;2.10;0.55;;;;;;;;;;5027797;28;20530;-51
2022/09/17 01:47:31;;;;;;;1.02;0.50;;;;;;;;;;5021362;28;20034;-51
2022/09/17 01:50:01;;;;;;;3.05;0.60;;;;;;;;;;5035297;28;20057;-50
2022/09/17 01:52:30;;;;;;;1.48;0.50;;;;;;;;;;5037819;28;20068;-48
2022/09/17 01:55:07;;;;;;;1.88;0.52;;;;;;;;;;5039513;28;20060;-49
2022/09/17 01:57:44;;;;;;;1.55;0.70;;;;;;;;;;5015904;28;20134;-51
2022/09/17 02:00:15;;;;;;;1.83;0.60;;;;;;;;;;5015342;28;20050;-50
2022/09/17 02:02:46;;;;;;;2.95;0.63;;;;;;;;;;5014839;28;20056;-50
2022/09/17 02:05:16;;;;;;;1.58;0.60;;;;;;;;;;5015143;28;20463;-51
2022/09/17 02:07:45;;;;;;;3.08;0.70;;;;;;;;;;5026568;28;20042;-51
2022/09/17 02:10:17;;;;;;;2.90;0.73;;;;;;;;;;5022663;28;20052;-50
2022/09/17 02:12:45;;;;;;;1.10;0.40;;;;;;;;;;5031639;28;20045;-49
2022/09/17 02:15:23;;;;;;;3.42;0.43;;;;;;;;;;5023523;28;20056;-49
2022/09/17 02:17:58;;;;;;;1.02;0.40;;;;;;;;;;5014223;28;20360;-48
2022/09/17 02:20:26;;;;;;;3.03;0.50;;;;;;;;;;5015161;28;20042;-53
2022/09/17 02:22:57;;;;;;;2.00;0.40;;;;;;;;;;5032333;28;20060;-50
2022/09/17 02:25:28;;;;;;;1.77;0.40;;;;;;;;;;5021348;28;20132;-51
2022/09/17 02:28:05;;;;;;;0.57;0.30;;;;;;;;;;5021493;28;20141;-49
2022/09/17 02:30:34;;;;;;;1.95;0.40;;;;;;;;;;5026214;28;20057;-50
2022/09/17 02:33:06;;;;;;;1.67;0.68;;;;;;;;;;5030639;28;20057;-49
2022/09/17 02:35:32;;;;;;;0.85;0.47;;;;;;;;;;5030279;28;20049;-49
2022/09/17 02:38:02;;;;;;;1.50;0.52;;;;;;;;;;5022567;28;20154;-49
2022/09/17 02:40:35;;;;;;;1.42;0.70;;;;;;;;;;5032366;28;20061;-49
2022/09/17 02:43:10;;;;;;;0.88;0.40;;;;;;;;;;5030116;28;20052;-49
2022/09/17 02:45:46;;;;;;;1.02;0.40;;;;;;;;;;5026031;28;20053;-50
2022/09/17 02:48:20;;;;;;;1.65;0.55;;;;;;;;;;5036236;28;20041;-49
2022/09/17 02:50:59;;;;;;;1.00;0.50;;;;;;;;;;5043116;28;20564;-52
2022/09/17 02:53:37;;;;;;;3.03;0.70;;;;;;;;;;5038920;28;20132;-50
2022/09/17 02:56:10;;;;;;;2.67;0.40;;;;;;;;;;5033635;28;20103;-52
2022/09/17 02:58:39;;;;;;;1.63;0.50;;;;;;;;;;5033257;28;20060;-49
2022/09/17 03:01:08;;;;;;;1.65;0.60;;;;;;;;;;5033735;28;20133;-51
2022/09/17 03:03:38;;;;;;;0.80;0.35;;;;;;;;;;5032823;28;20437;-50
2022/09/17 03:06:08;;;;;;;3.10;0.70;;;;;;;;;;5033605;28;20060;-49
2022/09/17 03:08:46;;;;;;;3.13;0.57;;;;;;;;;;5019542;28;20458;-50
2022/09/17 03:11:13;;;;;;;5.45;0.65;;;;;;;;;;5033627;28;20084;-51
2022/09/17 03:13:43;;;;;;;1.52;0.50;;;;;;;;;;5033134;28;20133;-49
2022/09/17 03:16:10;;;;;;;3.45;0.50;;;;;;;;;;5033535;28;20053;-49
2022/09/17 03:18:38;;;;;;;1.45;0.22;;;;;;;;;;5023824;28;20054;-49
2022/09/17 03:21:05;;;;;;;3.13;0.50;;;;;;;;;;5034552;28;20064;-50
2022/09/17 03:23:34;;;;;;;2.15;0.68;;;;;;;;;;5032834;28;20053;-50
2022/09/17 03:26:04;;;;;;;3.30;0.60;;;;;;;;;;5030405;28;20053;-49
2022/09/17 03:28:32;;;;;;;2.80;0.70;;;;;;;;;;5032768;28;20049;-49
2022/09/17 03:31:00;;;;;;;1.15;0.57;;;;;;;;;;5027559;28;20053;-49
2022/09/17 03:33:29;;;;;;;2.65;0.60;;;;;;;;;;5029930;28;20494;-50
2022/09/17 03:35:58;;;;;;;2.25;0.52;;;;;;;;;;5019810;28;20153;-50
2022/09/17 03:38:28;;;;;;;2.25;0.63;;;;;;;;;;5019594;28;20089;-50
2022/09/17 03:40:58;;;;;;;2.25;0.40;;;;;;;;;;5043094;28;20133;-49
2022/09/17 03:43:26;;;;;;;1.40;0.32;;;;;;;;;;5032437;28;20088;-49
2022/09/17 03:45:54;;;;;;;1.48;0.60;;;;;;;;;;5031763;28;20080;-51
2022/09/17 03:48:22;;;;;;;2.78;0.50;;;;;;;;;;5032825;28;20045;-50
2022/09/17 03:50:50;;;;;;;1.20;0.22;;;;;;;;;;5033271;28;20537;-49
2022/09/17 03:53:20;;;;;;;1.50;0.30;;;;;;;;;;5022008;28;20060;-49
2022/09/17 03:55:50;;;;;;;2.15;0.40;;;;;;;;;;5023297;28;20393;-49
2022/09/17 03:58:16;;;;;;;0.90;0.22;;;;;;;;;;5032136;28;20049;-50
2022/09/17 04:00:44;;;;;;;1.02;0.30;;;;;;;;;;5018877;28;20055;-49
2022/09/17 04:03:13;;;;;;;0.98;0.10;;;;;;;;;;5032777;28;20057;-49
2022/09/17 04:05:41;;;;;;;1.63;0.30;;;;;;;;;;5018382;28;20445;-50
2022/09/17 04:08:08;;;;;;;4.20;0.70;;;;;;;;;;5022311;28;20041;-49
2022/09/17 04:10:50;;;;;;;1.30;0.30;;;;;;;;;;5029192;28;20049;-51
2022/09/17 04:13:20;;;;;;;1.15;0.40;;;;;;;;;;5022664;28;20111;-49
2022/09/17 04:15:49;;;;;;;0.70;0.25;;;;;;;;;;5018252;28;20045;-50
2022/09/17 04:18:17;;;;;;;1.48;0.30;;;;;;;;;;5027086;28;20060;-49
2022/09/17 04:20:47;;;;;;;1.65;0.50;;;;;;;;;;5032753;28;20489;-49
2022/09/17 04:23:13;;;;;;;1.05;0.40;;;;;;;;;;5034248;28;20057;-49
2022/09/17 04:25:41;;;;;;;0.98;0.40;;;;;;;;;;5032165;28;20049;-49
2022/09/17 04:28:10;;;;;;;0.82;0.22;;;;;;;;;;5031306;28;20646;-49
2022/09/17 04:30:41;;;;;;;1.27;0.55;;;;;;;;;;5013150;28;20104;-49
2022/09/17 04:33:08;;;;;;;2.10;0.43;;;;;;;;;;5012841;28;20376;-50
2022/09/17 04:35:38;;;;;;;3.35;0.50;;;;;;;;;;5034206;28;20060;-52
2022/09/17 04:38:06;;;;;;;1.10;0.60;;;;;;;;;;5036713;28;20405;-51
2022/09/17 04:40:32;;;;;;;1.40;0.50;;;;;;;;;;5046348;28;20049;-50
2022/09/17 04:43:05;;;;;;;1.33;0.50;;;;;;;;;;5036382;28;20046;-49
2022/09/17 04:45:34;;;;;;;1.15;0.60;;;;;;;;;;5034613;28;20081;-49
2022/09/17 04:48:03;;;;;;;1.23;0.60;;;;;;;;;;5030961;28;20058;-49
2022/09/17 04:50:32;;;;;;;1.45;0.73;;;;;;;;;;5027348;28;20397;-49
2022/09/17 04:53:00;;;;;;;0.82;0.55;;;;;;;;;;5030820;28;20053;-50
2022/09/17 04:55:30;;;;;;;2.67;0.57;;;;;;;;;;5026396;28;20064;-50
2022/09/17 04:57:59;;;;;;;2.30;0.90;;;;;;;;;;5029811;28;22127;-49
2022/09/17 05:00:31;;;;;;;3.00;0.90;;;;;;;;;;5016600;28;20340;-53
2022/09/17 05:03:00;;;;;;;3.67;0.80;;;;;;;;;;5030044;28;20060;-52
2022/09/17 05:05:29;;;;;;;1.15;0.50;;;;;;;;;;5021297;28;20041;-52
2022/09/17 05:07:56;;;;;;;3.45;1.05;;;;;;;;;;5025143;28;20706;-52
2022/09/17 05:10:25;;;;;;;2.30;1.00;;;;;;;;;;5021389;28;20050;-52
2022/09/17 05:12:54;;;;;;;0.90;0.75;;;;;;;;;;5023894;28;20873;-52
2022/09/17 05:15:22;;;;;;;1.15;0.65;;;;;;;;;;5035864;28;20053;-49
2022/09/17 05:18:03;;;;;;;2.78;0.80;;;;;;;;;;5027324;28;20057;-49
2022/09/17 05:20:32;;;;;;;2.75;1.00;;;;;;;;;;5035142;28;20493;-52
2022/09/17 05:22:58;;;;;;;1.42;0.90;;;;;;;;;;5043058;28;20057;-52
2022/09/17 05:25:24;;;;;;;1.13;0.65;;;;;;;;;;5035682;28;20049;-49
2022/09/17 05:27:52;;;;;;;2.22;0.85;;;;;;;;;;5035438;28;20057;-49
2022/09/17 05:30:23;;;;;;;3.00;0.68;;;;;;;;;;5035185;28;20045;-50
2022/09/17 05:33:00;;;;;;;1.23;0.57;;;;;;;;;;5035151;28;20421;-50
2022/09/17 05:35:28;;;;;;;1.67;1.00;;;;;;;;;;5021714;28;20045;-51
2022/09/17 05:37:58;;;;;;;2.15;0.70;;;;;;;;;;5026214;28;20061;-49
2022/09/17 05:40:25;;;;;;;2.28;0.73;;;;;;;;;;5035013;28;20136;-48
2022/09/17 05:43:02;;;;;;;2.67;1.27;;;;;;;;;;5019270;28;20049;-50
2022/09/17 05:45:29;;;;;;;4.45;0.95;;;;;;;;;;5033508;28;20045;-53
2022/09/17 05:48:04;;;;;;;1.70;0.85;;;;;;;;;;5033629;28;20045;-50
2022/09/17 05:50:34;;;;;;;2.90;1.13;;;;;;;;;;5033996;28;20143;-52
2022/09/17 05:53:03;;;;;;;3.78;0.90;;;;;;;;;;5038186;28;20057;-51
2022/09/17 05:55:31;;;;;;;1.92;0.80;;;;;;;;;;5034664;28;20064;-49
2022/09/17 05:57:59;;;;;;;2.50;1.05;;;;;;;;;;5034437;28;20053;-49
2022/09/17 06:00:25;;;;;;;3.42;1.00;;;;;;;;;;5034802;28;20390;-49
2022/09/17 06:02:54;;;;;;;3.97;1.30;;;;;;;;;;5034633;28;20075;-50
2022/09/17 06:05:23;;;;;;;4.10;1.08;;;;;;;;;;5034564;28;20064;-50
2022/09/17 06:07:53;;;;;;;1.98;0.90;;;;;;;;;;5029381;28;20034;-49
2022/09/17 06:10:21;;;;;;;3.33;0.70;;;;;;;;;;5033942;28;20052;-48
2022/09/17 06:12:50;;;;;;;2.65;0.70;;;;;;;;;;5034809;28;20049;-49
2022/09/17 06:15:19;;;;;;;1.75;0.80;;;;;;;;;;5034376;28;20049;-49
2022/09/17 06:17:47;;;;;;;1.20;0.80;;;;;;;;;;5033827;28;20057;-51
2022/09/17 06:20:15;;;;;;;2.53;1.10;;;;;;;;;;5033306;28;20053;-51
2022/09/17 06:22:45;;;;;;;2.97;1.02;;;;;;;;;;5031624;28;20429;-49
2022/09/17 06:25:13;;;;;;;1.65;1.00;;;;;;;;;;5030408;28;20058;-51
2022/09/17 06:27:40;;;;;;;2.35;0.80;;;;;;;;;;5030658;28;20195;-49
2022/09/17 06:30:10;;;;;;;1.83;1.00;;;;;;;;;;5033850;28;20406;-49
2022/09/17 06:32:37;;;;;;;2.78;0.88;;;;;;;;;;5030335;28;20136;-49
2022/09/17 06:35:05;;;;;;;2.17;0.80;;;;;;;;;;5033703;28;20065;-49
2022/09/17 06:37:35;;;;;;;4.20;1.08;;;;;;;;;;5033704;28;20128;-49
2022/09/17 06:40:14;;;;;;;1.75;0.77;;;;;;;;;;5034795;28;20482;-51
2022/09/17 06:42:43;;;;;;;1.65;0.93;;;;;;;;;;5032196;28;20049;-50
2022/09/17 06:45:10;;;;;;;1.63;0.75;;;;;;;;;;5031924;28;20081;-51
2022/09/17 06:47:40;;;;;;;3.03;0.95;;;;;;;;;;5033353;28;20386;-49
2022/09/17 06:50:11;;;;;;;1.70;1.00;;;;;;;;;;5033662;28;20064;-50
2022/09/17 06:52:40;;;;;;;2.22;0.82;;;;;;;;;;5038415;28;20809;-49
2022/09/17 06:55:10;;;;;;;3.22;1.15;;;;;;;;;;5027744;28;20120;-52
2022/09/17 06:57:44;;;;;;;2.40;0.80;;;;;;;;;;5025350;28;20049;-49
2022/09/17 07:00:14;;;;;;;1.10;0.70;;;;;;;;;;5019754;28;20045;-51
2022/09/17 07:02:42;;;;;;;1.90;1.00;;;;;;;;;;5033188;28;20060;-49
2022/09/17 07:05:08;;;;;;;3.38;1.00;;;;;;;;;;5028868;28;20057;-49
2022/09/17 07:07:38;;;;;;;3.05;0.88;;;;;;;;;;5032696;28;20049;-50
2022/09/17 07:10:05;;;;;;;2.75;0.77;;;;;;;;;;5033432;28;20148;-49
2022/09/17 07:12:35;;;;;;;2.55;1.05;;;;;;;;;;5032438;28;20054;-50
2022/09/17 07:15:01;;;;;;;1.58;0.85;;;;;;;;;;5033162;28;20143;-49
2022/09/17 07:17:31;;;;;;;1.92;0.90;;;;;;;;;;5032519;28;20057;-50
2022/09/17 07:19:57;;;;;;;1.42;0.68;;;;;;;;;;5026187;28;20112;-50
2022/09/17 07:22:26;;;;;;;2.08;0.98;;;;;;;;;;5033542;28;20421;-49
2022/09/17 07:24:53;;;;;;;1.80;0.90;;;;;;;;;;5028248;28;20064;-49
2022/09/17 07:27:22;;;;;;;1.00;0.90;;;;;;;;;;5031694;28;20061;-49
2022/09/17 07:29:50;;;;;;;1.92;0.80;;;;;;;;;;5029347;28;20053;-51
2022/09/17 07:32:16;;;;;;;1.77;0.80;;;;;;;;;;5029644;28;20057;-49
2022/09/17 07:34:45;;;;;;;1.70;0.68;;;;;;;;;;5033244;28;20053;-49
2022/09/17 07:37:14;;;;;;;2.13;0.85;;;;;;;;;;5030281;28;20057;-49
2022/09/17 07:39:44;;;;;;;2.83;0.80;;;;;;;;;;5025071;28;20041;-49
2022/09/17 07:42:12;;;;;;;2.33;0.82;;;;;;;;;;5032062;28;20053;-52
2022/09/17 07:44:41;;;;;;;2.47;0.93;;;;;;;;;;5027511;28;20059;-50
2022/09/17 07:47:11;;;;;;;3.35;1.17;;;;;;;;;;5021421;28;20053;-49
2022/09/17 07:49:40;;;;;;;2.45;0.80;;;;;;;;;;5025088;28;20132;-52
2022/09/17 07:52:07;;;;;;;2.95;1.25;;;;;;;;;;5027065;28;20049;-52
2022/09/17 07:54:33;;;;;;;1.48;0.70;;;;;;;;;;5033666;28;20049;-50
2022/09/17 07:57:00;;;;;;;3.45;1.00;;;;;;;;;;5032969;28;20064;-50
2022/09/17 07:59:27;;;;;;;1.75;0.70;;;;;;;;;;5019707;28;20042;-53
2022/09/17 08:01:55;;;;;;;1.73;0.90;;;;;;;;;;5032647;28;20049;-50
2022/09/17 08:04:28;;;;;;;2.17;1.23;;;;;;;;;;5026942;28;20050;-50
2022/09/17 08:06:59;;;;;;;9.65;1.42;;;;;;;;;;5032371;28;20133;-50
2022/09/17 08:09:29;;;;;;;1.83;1.00;;;;;;;;;;5022855;28;20112;-50
2022/09/17 08:11:58;;;;;;;3.72;0.77;;;;;;;;;;5028882;28;20053;-54
2022/09/17 08:14:26;;;;;;;1.90;0.82;;;;;;;;;;5032224;28;20136;-50
2022/09/17 08:16:53;;;;;;;5.00;0.52;;;;;;;;;;5027177;28;20073;-51
2022/09/17 08:19:21;;;;;;;1.83;0.90;;;;;;;;;;5030446;28;20038;-51
2022/09/17 08:21:51;;;;;;;1.75;0.60;;;;;;;;;;5030077;28;20041;-51
2022/09/17 08:24:19;;;;;;;1.55;0.90;;;;;;;;;;5026587;28;20481;-53
2022/09/17 08:26:46;;;;;;;3.70;0.90;;;;;;;;;;5032449;28;20081;-51
2022/09/17 08:29:13;;;;;;;1.52;0.80;;;;;;;;;;5020017;28;20722;-50
2022/09/17 08:31:42;;;;;;;1.08;0.70;;;;;;;;;;5028419;28;20042;-52
2022/09/17 08:34:10;;;;;;;1.98;0.90;;;;;;;;;;5020030;28;20364;-54
2022/09/17 08:36:39;;;;;;;2.38;0.77;;;;;;;;;;5027364;28;20057;-49
2022/09/17 08:39:10;;;;;;;2.10;0.85;;;;;;;;;;5029506;28;20077;-50
2022/09/17 08:41:45;;;;;;;2.40;0.98;;;;;;;;;;5034427;28;20077;-50
2022/09/17 08:44:18;;;;;;;3.60;1.00;;;;;;;;;;5027254;28;20255;-51
2022/09/17 08:46:46;;;;;;;2.47;1.20;;;;;;;;;;5025720;28;20045;-53
2022/09/17 08:49:16;;;;;;;4.68;1.00;;;;;;;;;;5027169;28;20065;-50
2022/09/17 08:51:50;;;;;;;3.88;0.80;;;;;;;;;;5033150;28;20136;-52
2022/09/17 08:54:27;;;;;;;2.90;0.88;;;;;;;;;;5035903;28;20060;-53
2022/09/17 08:57:04;;;;;;;1.98;0.90;;;;;;;;;;5032015;28;20061;-50
2022/09/17 08:59:37;;;;;;;1.70;0.85;;;;;;;;;;5025586;28;20064;-50
2022/09/17 09:02:17;;;;;;;1.77;0.82;;;;;;;;;;5019337;28;20057;-52
2022/09/17 09:04:54;;;;;;;6.75;1.13;;;;;;;;;;5026738;28;20132;-50
2022/09/17 09:07:24;;;;;;;5.30;1.30;;;;;;;;;;5028681;28;20053;-50
2022/09/17 09:10:04;;;;;;;2.33;0.90;;;;;;;;;;5020242;28;20045;-53
2022/09/17 09:12:34;;;;;;;1.52;1.00;;;;;;;;;;5028940;28;20053;-53
2022/09/17 09:15:02;;;;;;;1.58;0.80;;;;;;;;;;5020311;28;20049;-52
2022/09/17 09:17:31;;;;;;;2.10;0.80;;;;;;;;;;5025259;28;20064;-52
2022/09/17 09:19:59;;;;;;;1.33;0.70;;;;;;;;;;5029238;28;20498;-50
2022/09/17 09:22:39;;;;;;;1.95;0.85;;;;;;;;;;5036935;28;20049;-50
2022/09/17 09:25:14;;;;;;;4.50;1.00;;;;;;;;;;5021284;28;20076;-49
2022/09/17 09:27:46;;;;;;;2.40;1.33;;;;;;;;;;5035347;28;20045;-50
2022/09/17 09:30:14;;;;;;;2.17;0.73;;;;;;;;;;5019392;28;20081;-49
2022/09/17 09:32:52;;;;;;;1.40;0.70;;;;;;;;;;5025445;28;20049;-50
2022/09/17 09:35:20;;;;;;;2.33;0.75;;;;;;;;;;5030783;28;20398;-49
2022/09/17 09:37:52;;;;;;;2.85;0.80;;;;;;;;;;5021885;28;20045;-50
2022/09/17 09:40:25;;;;;;;3.70;0.90;;;;;;;;;;5038260;28;20048;-50
2022/09/17 09:42:53;;;;;;;2.75;1.20;;;;;;;;;;5036177;28;20053;-50
2022/09/17 09:45:25;;;;;;;4.13;0.90;;;;;;;;;;5035126;28;20057;-49
2022/09/17 09:47:56;;;;;;;2.72;0.80;;;;;;;;;;5033536;28;20053;-48
2022/09/17 09:50:33;;;;;;;1.50;1.15;;;;;;;;;;5023525;28;20048;-50
2022/09/17 09:53:05;;;;;;;3.97;0.90;;;;;;;;;;5025044;28;20062;-51
2022/09/17 09:55:41;;;;;;;3.15;1.00;;;;;;;;;;5025137;28;20053;-51
2022/09/17 09:58:13;;;;;;;2.45;0.70;;;;;;;;;;5023803;28;20100;-52
2022/09/17 10:00:41;;;;;;;2.60;0.68;;;;;;;;;;5021028;28;20598;-49
2022/09/17 10:03:12;;;;;;;2.85;0.80;;;;;;;;;;5028620;28;20539;-53
2022/09/17 10:05:39;;;;;;;2.55;0.80;;;;;;;;;;5027722;28;20065;-51
2022/09/17 10:08:12;;;;;;;2.28;0.70;;;;;;;;;;5034229;28;20437;-50
2022/09/17 10:10:57;;;;;;;3.40;0.80;;;;;;;;;;5017030;28;20470;-53
2022/09/17 10:13:29;;;;;;;1.20;0.70;;;;;;;;;;5017495;28;20116;-54
2022/09/17 10:15:56;;;;;;;3.60;0.70;;;;;;;;;;5026787;28;20058;-54
2022/09/17 10:18:26;;;;;;;1.17;0.68;;;;;;;;;;5029169;28;20480;-51
2022/09/17 10:20:58;;;;;;;1.70;0.70;;;;;;;;;;5033683;28;20057;-50
2022/09/17 10:23:27;;;;;;;0.88;0.50;;;;;;;;;;5032555;28;20064;-50
2022/09/17 10:25:55;;;;;;;1.30;0.40;;;;;;;;;;5034540;28;20132;-49
2022/09/17 10:28:43;;;;;;;1.88;0.60;;;;;;;;;;5032679;28;20463;-51
2022/09/17 10:31:16;;;;;;;1.08;0.52;;;;;;;;;;5034441;28;20057;-50
2022/09/17 10:33:56;;;;;;;1.70;0.60;;;;;;;;;;5033938;28;20049;-50
2022/09/17 10:36:45;;;;;;;1.95;0.60;;;;;;;;;;5034061;28;20088;-50
2022/09/17 10:39:35;;;;;;;1.20;0.38;;;;;;;;;;5021675;28;20423;-50
2022/09/17 10:42:03;;;;;;;0.80;0.40;;;;;;;;;;5021000;28;20064;-51
2022/09/17 10:44:32;;;;;;;2.00;0.50;;;;;;;;;;5033944;28;20099;-52
2022/09/17 10:47:05;;;;;;;2.58;0.60;;;;;;;;;;5034219;28;20363;-54
2022/09/17 10:49:36;;;;;;;0.63;0.30;;;;;;;;;;5033292;28;20095;-50
2022/09/17 10:52:06;;;;;;;1.45;0.50;;;;;;;;;;5033462;28;20051;-50
2022/09/17 10:54:45;;;;;;;1.45;0.40;;;;;;;;;;5026877;28;20073;-54
2022/09/17 10:57:15;;;;;;;1.25;0.40;;;;;;;;;;5033790;28;20049;-53
2022/09/17 11:00:00;;;;;;;2.28;0.45;;;;;;;;;;5016584;28;20666;-53
2022/09/17 11:02:37;;;;;;;1.00;0.30;;;;;;;;;;5014260;28;20145;-51
2022/09/17 11:05:25;;;;;;;0.85;0.40;;;;;;;;;;5018626;28;20111;-52
2022/09/17 11:07:57;;;;;;;4.53;0.65;;;;;;;;;;5015887;28;20069;-50
2022/09/17 11:10:28;;;;;;;0.80;0.40;;;;;;;;;;5013716;28;20084;-52
2022/09/17 11:13:10;;;;;;;5.28;0.63;;;;;;;;;;5029006;28;20065;-51
2022/09/17 11:15:47;;;;;;;3.15;0.68;;;;;;;;;;5033717;28;20042;-51
2022/09/17 11:18:26;;;;;;;1.92;0.30;;;;;;;;;;5032559;28;20057;-50
2022/09/17 11:21:08;;;;;;;1.55;0.35;;;;;;;;;;5033476;28;20049;-50
2022/09/17 11:23:48;;;;;;;0.82;0.20;;;;;;;;;;5032894;28;20123;-53
2022/09/17 11:26:22;;;;;;;0.85;0.47;;;;;;;;;;5032729;28;20477;-51
2022/09/17 11:28:57;;;;;;;2.63;0.85;;;;;;;;;;5019822;28;20049;-52
2022/09/17 11:31:30;;;;;;;2.67;0.60;;;;;;;;;;5033275;28;20129;-51
2022/09/17 11:34:17;;;;;;;1.45;0.30;;;;;;;;;;5019617;28;20143;-52
2022/09/17 11:36:59;;;;;;;1.98;0.35;;;;;;;;;;5032456;28;20060;-49
2022/09/17 11:39:29;;;;;;;2.85;0.30;;;;;;;;;;5021136;28;20053;-49
2022/09/17 11:41:57;;;;;;;0.82;0.40;;;;;;;;;;5042099;28;20045;-49
2022/09/17 11:44:33;;;;;;;1.52;0.60;;;;;;;;;;5029745;28;20056;-50
2022/09/17 11:47:02;;;;;;;1.48;0.40;;;;;;;;;;5020811;28;20086;-49
2022/09/17 11:49:36;;;;;;;1.55;0.50;;;;;;;;;;5026427;28;20049;-49
2022/09/17 11:52:08;;;;;;;1.88;0.40;;;;;;;;;;5031340;28;20049;-49
2022/09/17 11:55:06;;;;;;;1.27;0.47;;;;;;;;;;5026543;28;20041;-49
2022/09/17 11:57:34;;;;;;;2.05;0.50;;;;;;;;;;5018648;28;20050;-49
2022/09/17 12:00:04;;;;;;;2.92;0.82;;;;;;;;;;5032152;28;20053;-49
2022/09/17 12:02:39;;;;;;;3.35;0.70;;;;;;;;;;5032894;28;20049;-49
2022/09/17 12:05:07;;;;;;;;;;;;;;;;;;5032658;28;20049;-50
2022/09/17 12:07:41;;;;;;;1.20;0.50;;;;;;;;;;5031106;28;19936;-49
2022/09/17 12:10:22;;;;;;;0.60;0.40;;;;;;;;;;5031435;28;20052;-52
2022/09/17 12:12:53;;;;;;;1.52;0.70;;;;;;;;;;5022871;28;20065;-53
2022/09/17 12:15:22;;;;;;;0.65;0.40;;;;;;;;;;5030628;28;20143;-54
2022/09/17 12:17:59;;;;;;;0.77;0.40;;;;;;;;;;5026144;28;20065;-50
2022/09/17 12:20:29;;;;;;;2.35;0.40;;;;;;;;;;5026047;28;20469;-49
2022/09/17 12:22:57;;;;;;;1.25;0.30;;;;;;;;;;5033916;28;20497;-52
2022/09/17 12:25:25;;;;;;;1.35;0.30;;;;;;;;;;5032344;28;20084;-53
2022/09/17 12:27:53;;;;;;;0.75;0.30;;;;;;;;;;5032658;28;20064;-51
2022/09/17 12:30:25;;;;;;;1.60;0.30;;;;;;;;;;5027560;28;20056;-50
2022/09/17 12:32:59;;;;;;;1.55;0.40;;;;;;;;;;5024158;28;20053;-49
2022/09/17 12:35:33;;;;;;;0.80;0.30;;;;;;;;;;5013134;28;20466;-49
2022/09/17 12:38:12;;;;;;;1.38;0.50;;;;;;;;;;5023925;28;20056;-50
2022/09/17 12:40:46;;;;;;;0.70;0.38;;;;;;;;;;5030273;28;20049;-50
2022/09/17 12:43:27;;;;;;;1.80;0.35;;;;;;;;;;5029482;28;20053;-50
2022/09/17 12:46:01;;;;;;;0.57;0.30;;;;;;;;;;5031792;28;20658;-52
2022/09/17 12:48:46;;;;;;;0.65;0.28;;;;;;;;;;5030476;28;20061;-50
2022/09/17 12:51:21;;;;;;;1.23;0.40;;;;;;;;;;5028372;28;20041;-49
2022/09/17 12:53:52;;;;;;;1.23;0.47;;;;;;;;;;5021802;28;20068;-50
2022/09/17 12:56:27;;;;;;;0.57;0.32;;;;;;;;;;5021977;28;20495;-50
2022/09/17 12:59:02;;;;;;;1.52;0.40;;;;;;;;;;5031130;28;20152;-51
2022/09/17 13:01:34;;;;;;;1.00;0.30;;;;;;;;;;5027492;28;20045;-53
2022/09/17 13:04:09;;;;;;;0.90;0.40;;;;;;;;;;5030388;28;20071;-54
2022/09/17 13:06:58;;;;;;;0.73;0.30;;;;;;;;;;5030495;28;20058;-54
2022/09/17 13:09:45;;;;;;;0.90;0.20;;;;;;;;;;5031130;28;20053;-54
2022/09/17 13:12:23;;;;;;;0.50;0.22;;;;;;;;;;5028767;28;20076;-50
2022/09/17 13:14:58;;;;;;;0.98;0.28;;;;;;;;;;5031225;28;20050;-51
2022/09/17 13:17:31;;;;;;;0.60;0.30;;;;;;;;;;5033131;28;20057;-49
2022/09/17 13:20:03;;;;;;;0.25;0.15;;;;;;;;;;5029101;28;20372;-50
2022/09/17 13:22:33;;;;;;;0.50;0.30;;;;;;;;;;5035320;28;20057;-50
2022/09/17 13:25:05;;;;;;;1.23;0.32;;;;;;;;;;5035072;28;20092;-52
2022/09/17 13:27:37;;;;;;;0.73;0.30;;;;;;;;;;5040257;28;20053;-49
2022/09/17 13:30:04;;;;;;;1.73;0.30;;;;;;;;;;5035507;28;20320;-51
2022/09/17 13:32:45;;;;;;;0.82;0.30;;;;;;;;;;5034579;28;20064;-53
2022/09/17 13:35:32;;;;;;;1.65;0.50;;;;;;;;;;5032533;28;20049;-51
2022/09/17 13:37:59;;;;;;;0.85;0.30;;;;;;;;;;5024422;28;20057;-49
2022/09/17 13:40:30;;;;;;;1.77;0.38;;;;;;;;;;5033634;28;20446;-49
2022/09/17 13:43:00;;;;;;;0.68;0.30;;;;;;;;;;5038844;28;20049;-51
2022/09/17 13:45:26;;;;;;;2.10;0.20;;;;;;;;;;5036924;28;20087;-53
2022/09/17 13:48:04;;;;;;;3.22;0.50;;;;;;;;;;5046610;28;20048;-51
2022/09/17 13:50:35;;;;;;;2.13;0.70;;;;;;;;;;5038351;28;20042;-51
2022/09/17 13:53:06;;;;;;;3.50;0.40;;;;;;;;;;5042462;28;20358;-50
2022/09/17 13:55:38;;;;;;;1.27;0.25;;;;;;;;;;5040743;28;20061;-51
2022/09/17 13:58:07;;;;;;;1.45;0.40;;;;;;;;;;5037090;28;20061;-51
2022/09/17 14:00:52;;;;;;;1.33;0.30;;;;;;;;;;5030688;28;20137;-50
2022/09/17 14:03:40;;;;;;;1.48;0.45;;;;;;;;;;5033097;28;20133;-50
2022/09/17 14:06:22;;;;;;;1.05;0.28;;;;;;;;;;5033456;28;20077;-53
2022/09/17 14:08:53;;;;;;;1.85;0.38;;;;;;;;;;5035715;28;20053;-52
2022/09/17 14:11:34;;;;;;;0.45;0.30;;;;;;;;;;5035719;28;20056;-53
2022/09/17 14:17:07;;;;;;;2.25;0.60;;;;;;;;;;5144964;27;20477;-51
2022/09/17 14:19:38;;;;;;;1.60;0.30;;;;;;;;;;5128076;28;20079;-52
2022/09/17 14:22:14;;;;;;;4.90;2.00;;;;;;;;;;5128488;28;20272;-50
2022/09/17 14:24:54;;;;;;;1.65;0.47;;;;;;;;;;5114071;28;20083;-45
2022/09/17 14:27:36;;;;;;;3.65;0.95;;;;;;;;;;5118959;28;20062;-46
2022/09/17 14:30:21;;;;;;;1.85;0.47;;;;;;;;;;5130735;28;20044;-46
2022/09/17 14:33:06;;;;;;;1.80;0.50;;;;;;;;;;5131145;28;20054;-46
2022/09/17 14:35:50;;;;;;;1.25;0.52;;;;;;;;;;5123306;28;20163;-46
2022/09/17 14:38:31;;;;;;;1.00;0.45;;;;;;;;;;5127696;28;20044;-47
2022/09/17 14:41:00;;;;;;;0.90;0.50;;;;;;;;;;5124954;28;20047;-52
2022/09/17 14:43:36;;;;;;;0.32;0.28;;;;;;;;;;5113405;28;20441;-51
2022/09/17 14:46:13;;;;;;;4.07;0.40;;;;;;;;;;5124613;28;20051;-50
2022/09/17 14:48:41;;;;;;;1.25;0.38;;;;;;;;;;5124500;28;20043;-53
2022/09/17 14:51:32;;;;;;;0.95;0.40;;;;;;;;;;5129102;28;20047;-52
2022/09/17 14:54:17;;;;;;;4.95;0.68;;;;;;;;;;5125690;28;20052;-53
2022/09/17 14:56:59;;;;;;;3.47;0.65;;;;;;;;;;5122670;28;20047;-53
2022/09/17 14:59:54;;;;;;;4.25;0.60;;;;;;;;;;5118945;28;20206;-53
2022/09/17 15:02:31;;;;;;;1.38;0.30;;;;;;;;;;5025498;28;20674;-49
2022/09/17 15:05:03;;;;;;;1.38;0.40;;;;;;;;;;5022078;28;20056;-51
2022/09/17 15:07:34;;;;;;;2.65;0.30;;;;;;;;;;5021742;28;20053;-53
2022/09/17 15:10:09;;;;;;;0.77;0.40;;;;;;;;;;5026511;28;20050;-53
2022/09/17 15:12:39;;;;;;;3.95;0.65;;;;;;;;;;5019287;28;20053;-51
2022/09/17 15:15:14;;;;;;;3.38;0.52;;;;;;;;;;5027786;28;20132;-50